Faunsdale, Alabama
Current Conditions -  °F | °C
As of 9:15 PM on Saturday 22 Nov 2014 (Local Time) from KDYA Reporting Station
Overcast Overcast  
Wind Chill: 61°   Ceiling: 1600
Heat Index: 61°   Visibility: 10mi
Dew Point: 54°   Wind: 8mph
Humidity: 78%   Direction: 90°E
Pressure: 30.06"   Gusts: 17mph
Location:  32.46°N, 87.59°W
Report Text: KDYA 230315Z AUTO 09007G15KT 060V120 10SM OVC016 16/12 A3006 RMK AO2 T01600121
Loading
Personal Weather Stations






























Interactive Weather Map New forecast layout! Learn more

10-Day Weather Forecast

Advertisements
Track Severe Weather on mobile